createdAt,value
2022-08-17T04:04:56.923Z,67.33
2022-08-17T04:09:09.399Z,69.03
2022-08-17T04:13:24.882Z,69.73
2022-08-17T04:17:37.179Z,70.37
2022-08-17T04:21:48.703Z,70.02
2022-08-17T04:26:00.543Z,70.17
2022-08-17T04:30:12.528Z,70.04
2022-08-17T04:34:25.068Z,70.18
2022-08-17T04:38:39.367Z,70.43
2022-08-17T04:43:05.657Z,70.57
2022-08-17T04:47:17.293Z,70.50
2022-08-17T04:51:35.453Z,70.77
2022-08-17T04:55:47.962Z,71.13
2022-08-17T04:59:59.524Z,70.49
2022-08-17T05:04:32.894Z,70.10
2022-08-17T05:08:46.326Z,70.13
2022-08-17T05:13:22.941Z,70.02
2022-08-17T05:17:34.469Z,69.88
2022-08-17T05:21:45.980Z,70.37
2022-08-17T05:25:58.203Z,69.49
2022-08-17T05:30:10.388Z,70.17
2022-08-17T05:34:22.784Z,70.00
2022-08-17T05:38:34.643Z,69.82
2022-08-17T05:42:47.234Z,69.89
2022-08-17T05:46:59.834Z,68.93
2022-08-17T05:51:27.431Z,69.21
2022-08-17T05:55:50.643Z,69.44
2022-08-17T06:00:15.743Z,69.13
2022-08-17T06:05:02.152Z,69.35
2022-08-17T06:09:13.791Z,69.12
2022-08-17T06:13:42.493Z,70.22
2022-08-17T06:17:59.341Z,69.60
2022-08-17T06:22:15.184Z,69.02
2022-08-17T06:26:39.619Z,69.48
2022-08-17T06:31:00.823Z,69.53
2022-08-17T06:35:17.244Z,68.61
2022-08-17T06:39:59.243Z,67.72
2022-08-17T06:44:50.093Z,68.23
2022-08-17T06:49:08.195Z,67.56
2022-08-17T06:53:30.044Z,67.83
2022-08-17T06:57:46.204Z,67.44
2022-08-17T07:02:05.389Z,67.40
2022-08-17T07:06:42.564Z,66.63
2022-08-17T07:10:58.573Z,66.62
2022-08-17T07:15:20.737Z,66.57
2022-08-17T07:19:33.593Z,66.72
2022-08-17T07:24:11.003Z,66.55
2022-08-17T07:28:45.425Z,66.12
2022-08-17T07:33:00.960Z,65.92
2022-08-17T07:37:13.850Z,65.84
2022-08-17T07:41:27.098Z,65.65
2022-08-17T07:46:41.650Z,65.88
2022-08-17T07:50:55.016Z,65.71
2022-08-17T07:55:30.262Z,65.79
2022-08-17T08:00:03.300Z,65.61
2022-08-17T08:05:02.393Z,65.71
2022-08-17T08:09:30.701Z,65.77
2022-08-17T08:13:45.393Z,66.21
2022-08-17T08:18:00.683Z,66.25
2022-08-17T08:22:21.517Z,66.03
2022-08-17T08:26:58.031Z,65.55
2022-08-17T08:31:24.401Z,62.59
2022-08-17T08:35:58.565Z,61.44
2022-08-17T08:40:38.742Z,60.89
2022-08-17T08:49:16.996Z,58.50
2022-08-17T08:53:37.740Z,57.68
2022-08-17T08:58:00.908Z,57.66
2022-08-17T09:02:38.436Z,57.07
2022-08-17T09:07:02.159Z,55.81
2022-08-17T09:11:17.852Z,54.99
2022-08-17T09:15:38.066Z,54.37
2022-08-17T09:19:57.657Z,54.07
2022-08-17T09:24:16.211Z,53.28
2022-08-17T09:28:44.177Z,52.86
2022-08-17T09:33:06.223Z,52.50
2022-08-17T09:37:30.877Z,51.84
2022-08-17T09:42:14.522Z,51.09
2022-08-17T09:46:41.776Z,51.79
2022-08-17T09:51:07.046Z,51.08
2022-08-17T09:55:19.153Z,50.88
2022-08-17T09:59:50.187Z,50.84
2022-08-17T10:04:20.749Z,50.43
2022-08-17T10:08:45.792Z,50.51
2022-08-17T10:13:16.030Z,48.09
2022-08-17T10:17:55.475Z,47.66
2022-08-17T10:22:59.511Z,46.50
2022-08-17T10:27:14.773Z,46.59
2022-08-17T10:31:37.589Z,47.55
2022-08-17T10:35:57.288Z,47.56
2022-08-17T10:40:34.949Z,47.44
2022-08-17T10:45:02.028Z,48.07
2022-08-17T10:49:16.567Z,47.05
2022-08-17T10:53:40.700Z,47.60
2022-08-17T10:58:12.464Z,47.12
2022-08-17T11:02:28.458Z,46.07
2022-08-17T11:06:52.144Z,45.36
2022-08-17T11:11:27.025Z,44.49
2022-08-17T11:15:55.689Z,43.54
2022-08-17T11:20:31.057Z,42.38
2022-08-17T11:24:51.455Z,42.42
2022-08-17T11:29:09.619Z,41.40
2022-08-17T11:33:30.417Z,41.96
2022-08-17T11:38:02.979Z,42.09
2022-08-17T11:42:26.713Z,41.79
2022-08-17T11:47:38.369Z,41.72
2022-08-17T11:51:59.406Z,39.58
2022-08-17T11:56:33.462Z,39.88
2022-08-17T12:00:44.961Z,39.62
2022-08-17T12:05:14.869Z,39.16
2022-08-17T12:09:32.269Z,37.87
2022-08-17T12:13:47.401Z,37.64
2022-08-17T12:17:59.250Z,37.78
2022-08-17T12:22:25.848Z,37.83
2022-08-17T12:26:37.639Z,37.12
2022-08-17T12:30:51.927Z,36.74
2022-08-17T12:35:05.859Z,37.44
2022-08-17T12:39:21.426Z,36.65
2022-08-17T12:43:33.634Z,35.46
2022-08-17T12:47:45.343Z,35.83
2022-08-17T12:52:02.505Z,34.82
2022-08-17T12:56:14.230Z,35.40
2022-08-17T13:00:47.718Z,35.53
2022-08-17T13:05:00.975Z,35.45
2022-08-17T13:09:36.059Z,35.52
2022-08-17T13:13:55.904Z,35.06
2022-08-17T13:18:30.126Z,34.44
2022-08-17T13:22:43.269Z,35.99
2022-08-17T13:26:59.204Z,35.51
2022-08-17T13:31:52.076Z,34.41
2022-08-17T13:36:08.814Z,35.53
2022-08-17T13:40:35.545Z,35.18
2022-08-17T13:44:47.091Z,34.21
2022-08-17T13:49:02.503Z,34.37
2022-08-17T13:53:31.513Z,34.51
2022-08-17T13:57:47.930Z,33.29
2022-08-17T14:02:00.406Z,33.17
2022-08-17T14:06:12.010Z,33.64
2022-08-17T14:10:36.264Z,33.61
2022-08-17T14:14:49.516Z,34.00
2022-08-17T14:19:01.394Z,34.94
2022-08-17T14:23:14.432Z,34.34
2022-08-17T14:27:27.999Z,34.25
2022-08-17T14:31:39.908Z,34.53
2022-08-17T14:35:53.451Z,34.62
2022-08-17T14:40:14.741Z,33.76
2022-08-17T14:44:26.382Z,33.52
2022-08-17T14:48:40.476Z,32.98
2022-08-17T14:52:52.223Z,32.99
2022-08-17T14:57:24.638Z,32.57
2022-08-17T15:01:35.378Z,32.36
2022-08-17T15:05:47.263Z,33.31
2022-08-17T15:10:01.373Z,33.60
2022-08-17T15:14:13.400Z,32.86
2022-08-17T15:18:25.125Z,33.64
2022-08-17T15:22:36.801Z,34.06
2022-08-17T15:26:48.318Z,33.21
2022-08-17T15:31:00.180Z,33.08
2022-08-17T15:35:13.636Z,32.49
2022-08-17T15:39:25.334Z,32.50
2022-08-17T15:43:36.944Z,31.97
2022-08-17T15:47:48.455Z,31.94
2022-08-17T15:52:00.049Z,32.54
2022-08-17T15:56:13.570Z,31.95
2022-08-17T16:00:26.767Z,32.54
2022-08-17T16:04:40.858Z,32.70
2022-08-17T16:08:57.485Z,32.66
2022-08-17T16:13:17.976Z,32.73
2022-08-17T16:17:40.080Z,32.19
2022-08-17T16:21:52.163Z,32.57
2022-08-17T16:26:03.695Z,32.29
2022-08-17T16:30:17.705Z,32.16
2022-08-17T16:34:29.639Z,32.60
2022-08-17T16:38:41.281Z,32.01
2022-08-17T16:42:53.727Z,32.09
2022-08-17T16:47:08.622Z,32.45
2022-08-17T16:51:20.717Z,32.65
2022-08-17T16:55:35.366Z,33.14
2022-08-17T16:59:50.211Z,33.87
2022-08-17T17:04:05.203Z,33.98
2022-08-17T17:08:31.275Z,34.24
2022-08-17T17:13:01.934Z,34.30
2022-08-17T17:17:35.758Z,34.89
2022-08-17T17:22:03.999Z,35.40
2022-08-17T17:26:35.154Z,36.01
2022-08-17T17:31:13.538Z,35.93
2022-08-17T17:35:34.455Z,35.85
2022-08-17T17:39:49.623Z,35.87
2022-08-17T17:44:15.275Z,35.51
2022-08-17T17:48:30.062Z,35.49
2022-08-17T17:53:04.003Z,36.13
2022-08-17T17:57:20.465Z,36.40
2022-08-17T18:01:48.307Z,37.12
2022-08-17T18:06:05.898Z,37.20
2022-08-17T18:10:30.479Z,37.77
2022-08-17T18:15:05.361Z,38.42
2022-08-17T18:19:20.596Z,39.81
2022-08-17T18:23:33.059Z,41.58
2022-08-17T18:27:50.723Z,41.93
2022-08-17T18:32:26.660Z,42.78
2022-08-17T18:36:39.672Z,43.03
2022-08-17T18:40:59.721Z,43.82
2022-08-17T18:45:12.909Z,44.67
2022-08-17T18:49:28.884Z,44.59
2022-08-17T18:53:41.445Z,45.63
2022-08-17T18:57:56.779Z,45.46
2022-08-17T19:02:23.139Z,46.26
2022-08-17T19:06:43.107Z,47.33
2022-08-17T19:10:59.117Z,47.15
2022-08-17T19:15:13.372Z,47.63
2022-08-17T19:19:59.449Z,48.04
2022-08-17T19:24:19.435Z,48.94
2022-08-17T19:28:44.932Z,49.12
2022-08-17T19:33:01.400Z,49.75
2022-08-17T19:37:37.805Z,49.93
2022-08-17T19:42:12.156Z,50.75
2022-08-17T19:46:40.005Z,51.01
2022-08-17T19:51:11.212Z,50.72
2022-08-17T19:55:44.370Z,50.78
2022-08-17T20:00:07.641Z,51.08
2022-08-17T20:04:31.796Z,51.27
2022-08-17T20:09:03.362Z,51.75
2022-08-17T20:13:33.684Z,51.71
2022-08-17T20:17:47.795Z,51.77
2022-08-17T20:22:11.629Z,51.98
2022-08-17T20:26:38.785Z,52.15
2022-08-17T20:30:51.357Z,52.42
2022-08-17T20:35:19.629Z,53.49
2022-08-17T20:39:34.575Z,53.28
2022-08-17T20:43:52.035Z,54.40
2022-08-17T20:48:36.143Z,54.45
2022-08-17T20:52:52.616Z,54.62
2022-08-17T20:57:09.271Z,55.18
2022-08-17T21:01:39.505Z,54.86
2022-08-17T21:06:16.927Z,54.92
2022-08-17T21:10:35.614Z,55.42
2022-08-17T21:15:06.971Z,56.05
2022-08-17T21:19:44.354Z,56.14
2022-08-17T21:24:33.807Z,56.23
2022-08-17T21:29:01.564Z,56.15
